Time,TemperatureF,DewpointF,PressureIn,WindDirection,WindDirectionDegrees,WindSpeedMPH,WindSpeedGustMPH,Humidity,HourlyPrecipIn,Conditions,Clouds,dailyrainin,SoftwareType,DateUTC
2013-04-19 00:04:00,49.0,47.6,30.26,SW,219,7.0,9.0,95,0.04,,---,0.00,VWS V14.01,2013-04-19 07:04:00,
2013-04-19 00:09:00,49.0,47.6,30.26,SSW,213,7.0,13.0,95,0.04,,---,0.00,VWS V14.01,2013-04-19 07:09:00,
2013-04-19 00:14:00,48.9,47.5,30.25,South,173,8.0,13.0,95,0.05,,---,0.01,VWS V14.01,2013-04-19 07:14:00,
2013-04-19 00:19:00,48.9,47.5,30.25,South,185,10.0,17.0,95,0.05,,---,0.01,VWS V14.01,2013-04-19 07:19:00,
2013-04-19 00:24:00,48.9,47.5,30.25,South,188,9.0,16.0,95,0.06,,---,0.02,VWS V14.01,2013-04-19 07:24:00,
2013-04-19 00:29:00,49.0,47.6,30.25,South,178,8.0,13.0,95,0.05,,---,0.02,VWS V14.01,2013-04-19 07:29:00,
2013-04-19 00:34:00,49.0,47.6,30.25,SSW,209,9.0,13.0,95,0.05,,---,0.02,VWS V14.01,2013-04-19 07:34:00,
2013-04-19 00:39:00,49.0,47.6,30.25,South,187,5.0,10.0,95,0.04,,---,0.02,VWS V14.01,2013-04-19 07:39:00,
2013-04-19 00:44:00,49.1,47.7,30.24,SSW,193,10.0,14.0,95,0.05,,---,0.03,VWS V14.01,2013-04-19 07:44:00,
2013-04-19 00:49:00,49.1,47.7,30.25,South,179,10.0,10.0,95,0.04,,---,0.03,VWS V14.01,2013-04-19 07:49:00,
2013-04-19 00:54:00,49.2,47.8,30.24,SW,223,7.0,17.0,95,0.05,,---,0.04,VWS V14.01,2013-04-19 07:54:00,
2013-04-19 00:59:00,49.2,47.8,30.24,SW,221,6.0,10.0,95,0.04,,---,0.04,VWS V14.01,2013-04-19 07:59:00,
2013-04-19 01:04:00,49.2,47.8,30.24,SSW,192,4.0,10.0,95,0.04,,---,0.04,VWS V14.01,2013-04-19 08:04:00,
2013-04-19 01:09:00,49.2,47.8,30.24,SSW,209,8.0,12.0,95,0.05,,---,0.05,VWS V14.01,2013-04-19 08:09:00,
2013-04-19 01:14:00,49.2,47.8,30.24,SSE,167,15.0,19.0,95,0.04,,---,0.05,VWS V14.01,2013-04-19 08:14:00,
2013-04-19 01:19:00,49.2,47.8,30.23,South,173,13.0,21.0,95,0.05,,---,0.06,VWS V14.01,2013-04-19 08:19:00,
2013-04-19 01:24:00,49.3,47.9,30.23,SSW,197,7.0,22.0,95,0.05,,---,0.06,VWS V14.01,2013-04-19 08:24:00,
2013-04-19 01:29:00,49.3,47.9,30.23,SSW,209,10.0,16.0,95,0.05,,---,0.07,VWS V14.01,2013-04-19 08:29:00,
2013-04-19 01:34:00,49.3,47.9,30.23,South,173,13.0,20.0,95,0.05,,---,0.07,VWS V14.01,2013-04-19 08:34:00,
2013-04-19 01:39:00,49.3,47.9,30.23,SSW,209,8.0,13.0,95,0.05,,---,0.07,VWS V14.01,2013-04-19 08:39:00,
2013-04-19 01:44:00,49.2,47.8,30.23,SSW,212,8.0,14.0,95,0.04,,---,0.07,VWS V14.01,2013-04-19 08:44:00,
2013-04-19 01:49:00,49.2,47.8,30.23,SSW,198,17.0,19.0,95,0.04,,---,0.07,VWS V14.01,2013-04-19 08:49:00,
2013-04-19 01:54:00,49.2,47.8,30.23,South,175,11.0,16.0,95,0.05,,---,0.08,VWS V14.01,2013-04-19 08:54:00,
2013-04-19 01:59:00,49.2,47.8,30.22,SW,218,12.0,28.0,95,0.04,,---,0.08,VWS V14.01,2013-04-19 08:59:00,
2013-04-19 02:04:00,49.3,47.9,30.23,South,186,10.0,16.0,95,0.04,,---,0.08,VWS V14.01,2013-04-19 09:04:00,
2013-04-19 02:09:00,49.3,47.9,30.22,SSW,212,6.0,13.0,95,0.05,,---,0.09,VWS V14.01,2013-04-19 09:09:00,
2013-04-19 02:14:00,49.3,47.9,30.22,SSW,205,8.0,10.0,95,0.04,,---,0.09,VWS V14.01,2013-04-19 09:14:00,
2013-04-19 02:19:00,49.3,47.9,30.22,SSW,196,3.0,8.0,95,0.05,,---,0.10,VWS V14.01,2013-04-19 09:19:00,
2013-04-19 02:24:00,49.2,47.8,30.22,SW,214,5.0,13.0,95,0.04,,---,0.10,VWS V14.01,2013-04-19 09:24:00,
2013-04-19 02:29:00,49.2,47.8,30.22,SSW,202,12.0,12.0,95,0.03,,---,0.10,VWS V14.01,2013-04-19 09:29:00,
2013-04-19 02:34:00,49.2,47.8,30.21,SSW,207,9.0,10.0,95,0.03,,---,0.10,VWS V14.01,2013-04-19 09:34:00,
2013-04-19 02:39:00,49.3,47.9,30.21,SW,220,6.0,11.0,95,0.03,,---,0.10,VWS V14.01,2013-04-19 09:39:00,
2013-04-19 02:44:00,49.3,48.2,30.21,SSW,193,12.0,13.0,96,0.04,,---,0.11,VWS V14.01,2013-04-19 09:44:00,
2013-04-19 02:49:00,49.2,48.1,30.21,South,173,8.0,8.0,96,0.04,,---,0.11,VWS V14.01,2013-04-19 09:49:00,
2013-04-19 02:54:00,49.2,48.1,30.20,South,180,10.0,11.0,96,0.03,,---,0.11,VWS V14.01,2013-04-19 09:54:00,
2013-04-19 02:59:00,49.3,48.2,30.20,SSE,160,10.0,10.0,96,0.03,,---,0.11,VWS V14.01,2013-04-19 09:59:00,
2013-04-19 03:04:00,49.3,47.9,30.19,SSW,210,11.0,21.0,95,0.03,,---,0.11,VWS V14.01,2013-04-19 10:04:00,
2013-04-19 03:09:00,49.4,48.0,30.19,SSW,208,6.0,6.0,95,0.02,,---,0.11,VWS V14.01,2013-04-19 10:09:00,
2013-04-19 03:14:00,49.5,48.1,30.19,SSW,195,4.0,9.0,95,0.03,,---,0.12,VWS V14.01,2013-04-19 10:14:00,
2013-04-19 03:19:00,49.4,48.0,30.19,South,183,11.0,11.0,95,0.02,,---,0.12,VWS V14.01,2013-04-19 10:19:00,
2013-04-19 03:24:00,49.4,48.0,30.18,SSW,195,15.0,15.0,95,0.03,,---,0.13,VWS V14.01,2013-04-19 10:24:00,
2013-04-19 03:29:00,49.5,48.1,30.19,SSW,194,10.0,10.0,95,0.03,,---,0.13,VWS V14.01,2013-04-19 10:29:00,
2013-04-19 03:34:00,49.4,48.0,30.18,SW,223,10.0,14.0,95,0.04,,---,0.14,VWS V14.01,2013-04-19 10:34:00,
2013-04-19 03:39:00,49.4,48.0,30.18,SW,223,7.0,9.0,95,0.05,,---,0.15,VWS V14.01,2013-04-19 10:39:00,
2013-04-19 03:44:00,49.3,47.9,30.18,SW,231,10.0,13.0,95,0.05,,---,0.16,VWS V14.01,2013-04-19 10:44:00,
2013-04-19 03:50:00,49.2,48.1,30.18,SE,137,5.0,7.0,96,0.06,,---,0.17,VWS V14.01,2013-04-19 10:50:00,
2013-04-19 03:55:00,49.2,48.1,30.17,SSW,201,6.0,16.0,96,0.06,,---,0.17,VWS V14.01,2013-04-19 10:55:00,
2013-04-19 04:00:00,49.3,47.9,30.17,SW,215,8.0,12.0,95,0.07,,---,0.18,VWS V14.01,2013-04-19 11:00:00,
2013-04-19 04:05:00,49.3,48.2,30.17,SSW,192,6.0,9.0,96,0.07,,---,0.18,VWS V14.01,2013-04-19 11:05:00,
2013-04-19 04:10:00,49.2,48.1,30.17,SSW,213,11.0,11.0,96,0.08,,---,0.19,VWS V14.01,2013-04-19 11:10:00,
2013-04-19 04:15:00,49.2,48.1,30.17,SW,222,8.0,13.0,96,0.08,,---,0.20,VWS V14.01,2013-04-19 11:15:00,
2013-04-19 04:20:00,49.2,48.1,30.17,SSW,192,3.0,5.0,96,0.08,,---,0.20,VWS V14.01,2013-04-19 11:20:00,
2013-04-19 04:25:00,49.1,48.0,30.16,SSW,198,9.0,10.0,96,0.07,,---,0.20,VWS V14.01,2013-04-19 11:25:00,
2013-04-19 04:30:00,49.1,48.0,30.16,WSW,238,3.0,13.0,96,0.08,,---,0.21,VWS V14.01,2013-04-19 11:30:00,
2013-04-19 04:35:00,49.1,48.0,30.16,SE,136,7.0,7.0,96,0.07,,---,0.21,VWS V14.01,2013-04-19 11:35:00,
2013-04-19 04:40:00,49.1,48.0,30.16,SSW,192,7.0,10.0,96,0.06,,---,0.21,VWS V14.01,2013-04-19 11:40:00,
2013-04-19 04:45:00,49.0,47.9,30.16,SW,232,1.0,4.0,96,0.05,,---,0.21,VWS V14.01,2013-04-19 11:45:00,
2013-04-19 04:50:00,49.0,47.9,30.16,SW,227,5.0,10.0,96,0.05,,---,0.22,VWS V14.01,2013-04-19 11:50:00,
2013-04-19 04:55:00,49.0,47.9,30.16,SW,215,4.0,9.0,96,0.05,,---,0.22,VWS V14.01,2013-04-19 11:55:00,
2013-04-19 05:00:00,49.1,48.0,30.16,SSW,202,6.0,12.0,96,0.04,,---,0.22,VWS V14.01,2013-04-19 12:00:00,
2013-04-19 05:05:00,49.1,48.0,30.16,SW,227,6.0,7.0,96,0.04,,---,0.22,VWS V14.01,2013-04-19 12:05:00,
2013-04-19 05:10:00,49.0,47.9,30.16,SSW,203,6.0,11.0,96,0.03,,---,0.22,VWS V14.01,2013-04-19 12:10:00,
2013-04-19 05:15:00,49.0,47.9,30.15,SW,224,5.0,9.0,96,0.03,,---,0.23,VWS V14.01,2013-04-19 12:15:00,
2013-04-19 05:20:00,49.0,47.9,30.15,South,176,7.0,8.0,96,0.04,,---,0.24,VWS V14.01,2013-04-19 12:20:00,
2013-04-19 05:25:00,49.0,47.9,30.15,SW,215,9.0,9.0,96,0.04,,---,0.24,VWS V14.01,2013-04-19 12:25:00,
2013-04-19 05:30:00,49.0,47.9,30.15,SW,214,2.0,10.0,96,0.03,,---,0.24,VWS V14.01,2013-04-19 12:30:00,
2013-04-19 05:35:00,49.0,48.2,30.15,South,174,14.0,14.0,97,0.03,,---,0.24,VWS V14.01,2013-04-19 12:35:00,
2013-04-19 05:40:00,49.0,48.2,30.15,SSE,158,8.0,12.0,97,0.03,,---,0.24,VWS V14.01,2013-04-19 12:40:00,
2013-04-19 05:45:00,49.0,47.9,30.15,SSW,207,2.0,9.0,96,0.03,,---,0.24,VWS V14.01,2013-04-19 12:45:00,
2013-04-19 05:50:00,49.1,48.0,30.14,SSW,208,6.0,10.0,96,0.03,,---,0.25,VWS V14.01,2013-04-19 12:50:00,
2013-04-19 05:55:00,49.0,47.9,30.15,SSW,196,11.0,12.0,96,0.03,,---,0.25,VWS V14.01,2013-04-19 12:55:00,
2013-04-19 06:00:00,49.1,48.0,30.14,SSW,196,7.0,9.0,96,0.03,,---,0.25,VWS V14.01,2013-04-19 13:00:00,
2013-04-19 06:05:00,49.1,48.0,30.14,SW,218,4.0,7.0,96,0.03,,---,0.25,VWS V14.01,2013-04-19 13:05:00,
2013-04-19 06:10:00,49.1,48.0,30.14,SW,215,2.0,8.0,96,0.03,,---,0.25,VWS V14.01,2013-04-19 13:10:00,
2013-04-19 06:15:00,49.1,48.0,30.14,SW,227,4.0,5.0,96,0.04,,---,0.26,VWS V14.01,2013-04-19 13:15:00,
2013-04-19 06:20:00,49.1,48.0,30.14,SSW,192,5.0,10.0,96,0.03,,---,0.26,VWS V14.01,2013-04-19 13:20:00,
2013-04-19 06:25:00,49.1,48.0,30.14,South,181,5.0,8.0,96,0.02,,---,0.26,VWS V14.01,2013-04-19 13:25:00,
2013-04-19 06:30:00,49.0,47.9,30.14,SW,220,3.0,6.0,96,0.02,,---,0.26,VWS V14.01,2013-04-19 13:30:00,
2013-04-19 06:35:00,49.0,47.9,30.14,SW,217,2.0,8.0,96,0.02,,---,0.26,VWS V14.01,2013-04-19 13:35:00,
2013-04-19 06:40:00,49.0,47.9,30.14,SSW,206,7.0,7.0,96,0.02,,---,0.26,VWS V14.01,2013-04-19 13:40:00,
2013-04-19 06:45:00,49.0,47.9,30.14,South,182,7.0,8.0,96,0.02,,---,0.26,VWS V14.01,2013-04-19 13:45:00,
2013-04-19 06:50:00,49.0,47.9,30.13,SW,230,6.0,12.0,96,0.01,,---,0.26,VWS V14.01,2013-04-19 13:50:00,
2013-04-19 06:55:00,49.1,48.0,30.13,South,186,3.0,8.0,96,0.01,,---,0.26,VWS V14.01,2013-04-19 13:55:00,
2013-04-19 07:00:00,49.1,48.0,30.13,South,180,10.0,10.0,96,0.01,,---,0.26,VWS V14.01,2013-04-19 14:00:00,
2013-04-19 07:05:00,49.1,48.0,30.13,SSW,206,5.0,9.0,96,0.01,,---,0.26,VWS V14.01,2013-04-19 14:05:00,
2013-04-19 07:10:00,49.1,48.0,30.13,SSW,199,9.0,11.0,96,0.01,,---,0.26,VWS V14.01,2013-04-19 14:10:00,
2013-04-19 07:15:00,49.2,48.1,30.13,SSW,192,6.0,8.0,96,0.02,,---,0.27,VWS V14.01,2013-04-19 14:15:00,
2013-04-19 07:20:00,49.2,48.1,30.13,SSW,194,4.0,7.0,96,0.01,,---,0.27,VWS V14.01,2013-04-19 14:20:00,
2013-04-19 07:25:00,49.2,48.1,30.13,SSW,213,1.0,4.0,96,0.01,,---,0.27,VWS V14.01,2013-04-19 14:25:00,
2013-04-19 07:30:00,49.2,48.1,30.12,SSW,201,5.0,9.0,96,0.01,,---,0.27,VWS V14.01,2013-04-19 14:30:00,
2013-04-19 07:35:00,49.2,48.1,30.12,SW,236,5.0,11.0,96,0.01,,---,0.27,VWS V14.01,2013-04-19 14:35:00,
2013-04-19 07:40:00,49.2,48.1,30.12,SSW,209,6.0,8.0,96,0.01,,---,0.27,VWS V14.01,2013-04-19 14:40:00,
2013-04-19 07:45:00,49.3,48.2,30.12,SSW,192,4.0,7.0,96,0.01,,---,0.27,VWS V14.01,2013-04-19 14:45:00,
2013-04-19 07:50:00,49.3,48.2,30.12,SSW,193,5.0,5.0,96,0.01,,---,0.27,VWS V14.01,2013-04-19 14:50:00,
2013-04-19 07:55:00,49.3,48.2,30.12,South,173,8.0,9.0,96,0.02,,---,0.28,VWS V14.01,2013-04-19 14:55:00,
2013-04-19 08:00:00,49.3,48.2,30.12,SW,215,3.0,5.0,96,0.02,,---,0.28,VWS V14.01,2013-04-19 15:00:00,
2013-04-19 08:05:00,49.3,48.2,30.12,East,82,2.0,4.0,96,0.02,,---,0.28,VWS V14.01,2013-04-19 15:05:00,
2013-04-19 08:10:00,49.4,48.3,30.12,SE,144,5.0,7.0,96,0.02,,---,0.28,VWS V14.01,2013-04-19 15:10:00,
2013-04-19 08:15:00,49.4,48.0,30.12,SSE,161,6.0,9.0,95,0.01,,---,0.28,VWS V14.01,2013-04-19 15:15:00,
2013-04-19 08:20:00,49.5,48.1,30.12,South,184,2.0,6.0,95,0.01,,---,0.28,VWS V14.01,2013-04-19 15:20:00,
2013-04-19 08:25:00,49.5,48.1,30.12,SW,234,5.0,8.0,95,0.02,,---,0.29,VWS V14.01,2013-04-19 15:25:00,
2013-04-19 08:30:00,49.6,48.2,30.12,SSW,209,5.0,12.0,95,0.02,,---,0.29,VWS V14.01,2013-04-19 15:30:00,
2013-04-19 08:35:00,49.5,48.1,30.11,South,189,4.0,13.0,95,0.02,,---,0.29,VWS V14.01,2013-04-19 15:35:00,
2013-04-19 08:40:00,49.6,48.2,30.11,SW,223,4.0,6.0,95,0.02,,---,0.29,VWS V14.01,2013-04-19 15:40:00,
2013-04-19 08:45:00,49.6,48.2,30.11,SW,219,4.0,9.0,95,0.02,,---,0.29,VWS V14.01,2013-04-19 15:45:00,
2013-04-19 08:50:00,49.7,48.3,30.11,SSW,194,5.0,13.0,95,0.03,,---,0.30,VWS V14.01,2013-04-19 15:50:00,
2013-04-19 08:55:00,49.7,48.3,30.11,SSW,192,1.0,5.0,95,0.02,,---,0.30,VWS V14.01,2013-04-19 15:55:00,
2013-04-19 09:00:00,49.7,48.3,30.11,SSW,198,6.0,7.0,95,0.02,,---,0.30,VWS V14.01,2013-04-19 16:00:00,
2013-04-19 09:05:00,49.7,48.3,30.11,SSW,204,11.0,11.0,95,0.03,,---,0.31,VWS V14.01,2013-04-19 16:05:00,
2013-04-19 09:10:00,49.6,48.2,30.11,SW,219,9.0,11.0,95,0.03,,---,0.31,VWS V14.01,2013-04-19 16:10:00,
2013-04-19 09:15:00,49.7,48.3,30.11,SW,234,3.0,4.0,95,0.04,,---,0.32,VWS V14.01,2013-04-19 16:15:00,
2013-04-19 09:20:00,49.8,48.4,30.11,SE,142,8.0,13.0,95,0.04,,---,0.32,VWS V14.01,2013-04-19 16:20:00,
2013-04-19 09:25:00,49.9,48.5,30.11,SW,215,5.0,10.0,95,0.03,,---,0.32,VWS V14.01,2013-04-19 16:25:00,
2013-04-19 09:30:00,49.9,48.5,30.11,South,190,2.0,7.0,95,0.04,,---,0.33,VWS V14.01,2013-04-19 16:30:00,
2013-04-19 09:35:00,49.9,48.5,30.11,South,178,2.0,5.0,95,0.04,,---,0.33,VWS V14.01,2013-04-19 16:35:00,
2013-04-19 09:40:00,50.0,48.6,30.11,WSW,239,1.0,8.0,95,0.05,,---,0.34,VWS V14.01,2013-04-19 16:40:00,
2013-04-19 09:45:00,50.0,48.6,30.11,SSW,202,11.0,11.0,95,0.05,,---,0.34,VWS V14.01,2013-04-19 16:45:00,
2013-04-19 09:50:00,50.1,48.7,30.11,SW,220,6.0,6.0,95,0.04,,---,0.34,VWS V14.01,2013-04-19 16:50:00,
2013-04-19 09:55:00,50.1,48.7,30.11,SSW,202,3.0,3.0,95,0.04,,---,0.34,VWS V14.01,2013-04-19 16:55:00,
2013-04-19 10:00:00,50.1,48.7,30.11,SSW,207,2.0,4.0,95,0.05,,---,0.35,VWS V14.01,2013-04-19 17:00:00,
2013-04-19 10:05:00,50.2,49.1,30.11,WSW,246,0.0,2.0,96,0.05,,---,0.36,VWS V14.01,2013-04-19 17:05:00,
2013-04-19 10:10:00,50.2,48.8,30.11,SW,229,2.0,5.0,95,0.05,,---,0.36,VWS V14.01,2013-04-19 17:10:00,
2013-04-19 10:15:00,50.3,48.9,30.11,SW,215,4.0,6.0,95,0.04,,---,0.36,VWS V14.01,2013-04-19 17:15:00,
2013-04-19 10:20:00,50.3,48.9,30.12,SE,140,10.0,13.0,95,0.04,,---,0.36,VWS V14.01,2013-04-19 17:20:00,
2013-04-19 10:25:00,50.4,49.0,30.11,SW,234,0.0,11.0,95,0.05,,---,0.37,VWS V14.01,2013-04-19 17:25:00,
2013-04-19 10:30:00,50.4,48.7,30.12,SE,146,6.0,8.0,94,0.05,,---,0.37,VWS V14.01,2013-04-19 17:30:00,
2013-04-19 10:35:00,50.5,49.1,30.12,SW,234,8.0,9.0,95,0.04,,---,0.37,VWS V14.01,2013-04-19 17:35:00,
2013-04-19 10:40:00,50.5,49.1,30.12,SW,222,6.0,8.0,95,0.04,,---,0.38,VWS V14.01,2013-04-19 17:40:00,
2013-04-19 10:45:00,50.6,49.2,30.12,SW,227,1.0,5.0,95,0.04,,---,0.38,VWS V14.01,2013-04-19 17:45:00,
2013-04-19 10:50:00,50.7,49.3,30.12,SW,217,5.0,7.0,95,0.04,,---,0.38,VWS V14.01,2013-04-19 17:50:00,
2013-04-19 10:55:00,50.8,49.4,30.12,South,181,1.0,4.0,95,0.04,,---,0.38,VWS V14.01,2013-04-19 17:55:00,
2013-04-19 11:00:00,50.9,49.5,30.12,SSW,201,1.0,5.0,95,0.04,,---,0.39,VWS V14.01,2013-04-19 18:00:00,
2013-04-19 11:05:00,50.9,49.5,30.13,South,180,7.0,8.0,95,0.04,,---,0.39,VWS V14.01,2013-04-19 18:05:00,
2013-04-19 11:10:00,50.8,49.1,30.13,SSW,203,9.0,15.0,94,0.03,,---,0.39,VWS V14.01,2013-04-19 18:10:00,
2013-04-19 11:15:00,50.8,49.4,30.13,SSW,210,4.0,7.0,95,0.04,,---,0.40,VWS V14.01,2013-04-19 18:15:00,
2013-04-19 11:20:00,50.7,49.0,30.12,South,188,5.0,10.0,94,0.04,,---,0.40,VWS V14.01,2013-04-19 18:20:00,
2013-04-19 11:25:00,50.6,48.9,30.13,SSW,203,5.0,10.0,94,0.04,,---,0.40,VWS V14.01,2013-04-19 18:25:00,
2013-04-19 11:30:00,50.5,48.8,30.13,South,176,10.0,13.0,94,0.03,,---,0.40,VWS V14.01,2013-04-19 18:30:00,
2013-04-19 11:35:00,50.5,48.8,30.13,South,186,5.0,9.0,94,0.03,,---,0.40,VWS V14.01,2013-04-19 18:35:00,
2013-04-19 11:40:00,50.6,48.9,30.13,SSW,210,5.0,11.0,94,0.02,,---,0.40,VWS V14.01,2013-04-19 18:40:00,
2013-04-19 11:45:00,50.6,48.9,30.13,South,182,8.0,11.0,94,0.03,,---,0.41,VWS V14.01,2013-04-19 18:45:00,
2013-04-19 11:50:00,50.6,49.2,30.13,SSE,162,2.0,8.0,95,0.03,,---,0.41,VWS V14.01,2013-04-19 18:50:00,
2013-04-19 11:55:00,50.7,49.0,30.13,South,187,5.0,13.0,94,0.03,,---,0.41,VWS V14.01,2013-04-19 18:55:00,
2013-04-19 12:00:00,50.8,49.1,30.13,SSW,198,6.0,10.0,94,0.02,,---,0.41,VWS V14.01,2013-04-19 19:00:00,
2013-04-19 12:05:00,51.0,49.6,30.13,SSW,201,4.0,9.0,95,0.02,,---,0.41,VWS V14.01,2013-04-19 19:05:00,
2013-04-19 12:10:00,51.0,49.6,30.13,South,179,8.0,8.0,95,0.02,,---,0.41,VWS V14.01,2013-04-19 19:10:00,
2013-04-19 12:15:00,51.1,49.7,30.13,SW,222,3.0,6.0,95,0.02,,---,0.41,VWS V14.01,2013-04-19 19:15:00,
2013-04-19 12:20:00,51.1,49.7,30.13,South,188,5.0,8.0,95,0.01,,---,0.41,VWS V14.01,2013-04-19 19:20:00,
2013-04-19 12:25:00,51.2,49.8,30.14,SSW,209,4.0,7.0,95,0.01,,---,0.41,VWS V14.01,2013-04-19 19:25:00,
2013-04-19 12:30:00,51.3,49.9,30.14,South,187,4.0,6.0,95,0.01,,---,0.41,VWS V14.01,2013-04-19 19:30:00,
2013-04-19 12:35:00,51.4,50.0,30.14,SSW,204,4.0,8.0,95,0.01,,---,0.41,VWS V14.01,2013-04-19 19:35:00,
2013-04-19 12:40:00,51.4,50.0,30.14,South,183,8.0,10.0,95,0.02,,---,0.42,VWS V14.01,2013-04-19 19:40:00,
2013-04-19 12:45:00,51.5,50.1,30.14,SW,215,6.0,7.0,95,0.02,,---,0.42,VWS V14.01,2013-04-19 19:45:00,
2013-04-19 12:50:00,51.6,50.2,30.14,South,179,8.0,10.0,95,0.01,,---,0.42,VWS V14.01,2013-04-19 19:50:00,
2013-04-19 12:55:00,51.7,50.3,30.14,South,181,4.0,8.0,95,0.01,,---,0.42,VWS V14.01,2013-04-19 19:55:00,
2013-04-19 13:00:00,51.9,50.5,30.14,SSW,210,3.0,6.0,95,0.01,,---,0.42,VWS V14.01,2013-04-19 20:00:00,
2013-04-19 13:05:00,52.2,50.8,30.14,SW,231,3.0,8.0,95,0.01,,---,0.42,VWS V14.01,2013-04-19 20:05:00,
2013-04-19 13:10:00,52.2,50.8,30.14,SW,214,3.0,6.0,95,0.01,,---,0.42,VWS V14.01,2013-04-19 20:10:00,
2013-04-19 13:15:00,52.2,50.5,30.14,SW,215,5.0,7.0,94,0.01,,---,0.42,VWS V14.01,2013-04-19 20:15:00,
2013-04-19 13:20:00,52.2,50.8,30.14,SSW,202,4.0,6.0,95,0.01,,---,0.42,VWS V14.01,2013-04-19 20:20:00,
2013-04-19 13:25:00,52.4,51.0,30.14,SW,217,2.0,6.0,95,0.01,,---,0.42,VWS V14.01,2013-04-19 20:25:00,
2013-04-19 13:30:00,52.5,51.1,30.14,SW,231,0.0,7.0,95,0.01,,---,0.42,VWS V14.01,2013-04-19 20:30:00,
2013-04-19 13:35:00,52.4,50.7,30.14,SSE,150,5.0,6.0,94,0.01,,---,0.42,VWS V14.01,2013-04-19 20:35:00,
2013-04-19 13:40:00,52.6,51.2,30.14,South,191,0.0,1.0,95,0.00,,---,0.42,VWS V14.01,2013-04-19 20:40:00,
2013-04-19 13:45:00,52.6,51.2,30.14,SSW,207,4.0,6.0,95,0.01,,---,0.43,VWS V14.01,2013-04-19 20:45:00,
2013-04-19 13:50:00,52.4,50.4,30.14,WSW,237,1.0,1.0,93,0.01,,---,0.43,VWS V14.01,2013-04-19 20:50:00,
2013-04-19 13:55:00,52.6,51.2,30.14,WSW,244,2.0,4.0,95,0.01,,---,0.43,VWS V14.01,2013-04-19 20:55:00,
2013-04-19 14:00:00,52.7,51.0,30.15,WSW,244,0.0,2.0,94,0.02,,---,0.44,VWS V14.01,2013-04-19 21:00:00,
2013-04-19 14:05:00,52.9,51.2,30.15,WSW,244,1.0,2.0,94,0.02,,---,0.44,VWS V14.01,2013-04-19 21:05:00,
2013-04-19 14:10:00,53.0,51.3,30.15,WSW,244,3.0,5.0,94,0.02,,---,0.44,VWS V14.01,2013-04-19 21:10:00,
2013-04-19 14:15:00,52.9,50.9,30.14,SW,230,3.0,5.0,93,0.02,,---,0.44,VWS V14.01,2013-04-19 21:15:00,
2013-04-19 14:20:00,53.1,51.4,30.14,WSW,238,2.0,4.0,94,0.02,,---,0.44,VWS V14.01,2013-04-19 21:20:00,
2013-04-19 14:25:00,53.2,51.2,30.15,SW,219,2.0,3.0,93,0.02,,---,0.44,VWS V14.01,2013-04-19 21:25:00,
2013-04-19 14:30:00,53.4,51.7,30.15,WSW,246,3.0,4.0,94,0.02,,---,0.44,VWS V14.01,2013-04-19 21:30:00,
2013-04-19 14:35:00,53.5,51.8,30.15,SSW,205,5.0,6.0,94,0.02,,---,0.44,VWS V14.01,2013-04-19 21:35:00,
2013-04-19 14:40:00,53.6,51.9,30.15,SW,231,1.0,3.0,94,0.02,,---,0.44,VWS V14.01,2013-04-19 21:40:00,
2013-04-19 14:45:00,53.5,51.5,30.15,SW,231,4.0,5.0,93,0.02,,---,0.44,VWS V14.01,2013-04-19 21:45:00,
2013-04-19 14:50:00,53.5,51.8,30.15,WSW,238,2.0,2.0,94,0.01,,---,0.44,VWS V14.01,2013-04-19 21:50:00,
2013-04-19 14:55:00,53.5,51.5,30.15,West,271,3.0,3.0,93,0.01,,---,0.44,VWS V14.01,2013-04-19 21:55:00,
2013-04-19 15:00:00,53.5,51.5,30.16,WNW,288,7.0,7.0,93,0.00,,---,0.44,VWS V14.01,2013-04-19 22:00:00,
2013-04-19 15:05:00,53.2,51.2,30.15,West,273,1.0,3.0,93,0.00,,---,0.44,VWS V14.01,2013-04-19 22:05:00,
2013-04-19 15:10:00,53.3,51.6,30.15,West,279,2.0,2.0,94,0.00,,---,0.44,VWS V14.01,2013-04-19 22:10:00,
2013-04-19 15:15:00,53.3,51.3,30.16,WSW,241,2.0,3.0,93,0.00,,---,0.44,VWS V14.01,2013-04-19 22:15:00,
2013-04-19 15:20:00,53.5,51.8,30.15,WSW,238,2.0,3.0,94,0.00,,---,0.44,VWS V14.01,2013-04-19 22:20:00,
2013-04-19 15:25:00,53.6,51.9,30.15,WNW,296,2.0,2.0,94,0.00,,---,0.44,VWS V14.01,2013-04-19 22:25:00,
2013-04-19 15:30:00,53.7,52.0,30.16,WNW,295,0.0,1.0,94,0.00,,---,0.44,VWS V14.01,2013-04-19 22:30:00,
2013-04-19 15:35:00,53.9,52.2,30.15,WNW,290,2.0,2.0,94,0.00,,---,0.44,VWS V14.01,2013-04-19 22:35:00,
2013-04-19 15:40:00,53.8,51.8,30.16,West,270,2.0,4.0,93,0.00,,---,0.44,VWS V14.01,2013-04-19 22:40:00,
2013-04-19 15:45:00,53.8,51.8,30.16,WSW,242,3.0,4.0,93,0.00,,---,0.44,VWS V14.01,2013-04-19 22:45:00,
2013-04-19 15:50:00,53.8,51.8,30.15,West,261,2.0,3.0,93,0.00,,---,0.44,VWS V14.01,2013-04-19 22:50:00,
2013-04-19 15:55:00,53.8,52.1,30.16,WSW,250,4.0,4.0,94,0.00,,---,0.44,VWS V14.01,2013-04-19 22:55:00,
2013-04-19 16:00:00,53.6,51.6,30.16,West,275,4.0,6.0,93,0.00,,---,0.44,VWS V14.01,2013-04-19 23:00:00,
2013-04-19 16:05:00,53.5,51.5,30.16,West,276,4.0,5.0,93,0.00,,---,0.44,VWS V14.01,2013-04-19 23:05:00,
2013-04-19 16:10:00,53.3,51.3,30.16,WNW,294,5.0,5.0,93,0.00,,---,0.44,VWS V14.01,2013-04-19 23:10:00,
2013-04-19 16:15:00,53.2,51.5,30.16,WNW,290,0.0,2.0,94,0.01,,---,0.45,VWS V14.01,2013-04-19 23:15:00,
2013-04-19 16:20:00,53.2,51.8,30.16,West,269,1.0,4.0,95,0.02,,---,0.46,VWS V14.01,2013-04-19 23:20:00,
2013-04-19 16:25:00,53.1,51.7,30.16,SSW,202,2.0,4.0,95,0.03,,---,0.47,VWS V14.01,2013-04-19 23:25:00,
2013-04-19 16:31:00,53.0,51.6,30.16,SSW,195,0.0,5.0,95,0.03,,---,0.47,VWS V14.01,2013-04-19 23:31:00,
2013-04-19 16:36:00,52.8,51.4,30.16,SSW,195,0.0,2.0,95,0.04,,---,0.48,VWS V14.01,2013-04-19 23:36:00,
2013-04-19 16:41:00,52.7,51.3,30.16,SSW,195,2.0,3.0,95,0.04,,---,0.48,VWS V14.01,2013-04-19 23:41:00,
2013-04-19 16:46:00,52.7,51.3,30.16,SW,215,6.0,7.0,95,0.04,,---,0.48,VWS V14.01,2013-04-19 23:46:00,
2013-04-19 16:51:00,52.6,51.5,30.16,SSW,207,4.0,4.0,96,0.05,,---,0.49,VWS V14.01,2013-04-19 23:51:00,
2013-04-19 16:56:00,52.4,51.3,30.16,SW,215,3.0,3.0,96,0.06,,---,0.50,VWS V14.01,2013-04-19 23:56:00,
2013-04-19 17:01:00,52.4,51.3,30.16,SSW,198,2.0,3.0,96,0.06,,---,0.50,VWS V14.01,2013-04-20 00:01:00,
2013-04-19 17:06:00,52.4,51.3,30.16,South,180,2.0,4.0,96,0.06,,---,0.50,VWS V14.01,2013-04-20 00:06:00,
2013-04-19 17:11:00,52.4,51.3,30.16,South,180,2.0,2.0,96,0.06,,---,0.50,VWS V14.01,2013-04-20 00:11:00,
2013-04-19 17:16:00,52.5,51.4,30.16,South,180,0.0,1.0,96,0.05,,---,0.50,VWS V14.01,2013-04-20 00:16:00,
2013-04-19 17:21:00,52.5,51.4,30.16,South,180,1.0,1.0,96,0.04,,---,0.50,VWS V14.01,2013-04-20 00:21:00,
2013-04-19 17:26:00,52.6,51.5,30.16,South,180,0.0,0.0,96,0.05,,---,0.51,VWS V14.01,2013-04-20 00:26:00,
2013-04-19 17:31:00,52.7,51.6,30.16,WSW,257,1.0,3.0,96,0.04,,---,0.51,VWS V14.01,2013-04-20 00:31:00,
2013-04-19 17:36:00,52.7,51.6,30.16,WNW,294,0.0,1.0,96,0.03,,---,0.51,VWS V14.01,2013-04-20 00:36:00,
2013-04-19 17:41:00,52.7,51.6,30.16,WNW,294,3.0,3.0,96,0.04,,---,0.52,VWS V14.01,2013-04-20 00:41:00,
2013-04-19 17:46:00,52.6,51.5,30.16,WNW,294,2.0,2.0,96,0.04,,---,0.52,VWS V14.01,2013-04-20 00:46:00,
2013-04-19 17:51:00,52.6,51.5,30.16,WNW,295,3.0,3.0,96,0.04,,---,0.53,VWS V14.01,2013-04-20 00:51:00,
2013-04-19 17:56:00,52.6,51.5,30.16,NNW,338,3.0,3.0,96,0.04,,---,0.53,VWS V14.01,2013-04-20 00:56:00,
2013-04-19 18:01:00,52.5,51.4,30.17,NW,316,4.0,5.0,96,0.04,,---,0.54,VWS V14.01,2013-04-20 01:01:00,
2013-04-19 18:06:00,52.4,51.3,30.17,North,350,2.0,3.0,96,0.04,,---,0.54,VWS V14.01,2013-04-20 01:06:00,
2013-04-19 18:11:00,52.2,51.1,30.17,NW,321,0.0,2.0,96,0.05,,---,0.55,VWS V14.01,2013-04-20 01:11:00,
2013-04-19 18:16:00,52.2,51.1,30.17,NW,312,2.0,4.0,96,0.05,,---,0.55,VWS V14.01,2013-04-20 01:16:00,
2013-04-19 18:21:00,52.1,51.0,30.17,NW,310,3.0,3.0,96,0.05,,---,0.55,VWS V14.01,2013-04-20 01:21:00,
2013-04-19 18:26:00,52.0,50.9,30.17,SW,215,3.0,3.0,96,0.05,,---,0.56,VWS V14.01,2013-04-20 01:26:00,
2013-04-19 18:31:00,51.9,50.8,30.17,West,281,4.0,5.0,96,0.05,,---,0.56,VWS V14.01,2013-04-20 01:31:00,
2013-04-19 18:36:00,51.8,50.7,30.17,WSW,250,3.0,4.0,96,0.05,,---,0.56,VWS V14.01,2013-04-20 01:36:00,
2013-04-19 18:41:00,51.7,50.6,30.17,WSW,239,8.0,10.0,96,0.04,,---,0.56,VWS V14.01,2013-04-20 01:41:00,
2013-04-19 18:46:00,51.5,50.1,30.17,SW,214,8.0,8.0,95,0.04,,---,0.56,VWS V14.01,2013-04-20 01:46:00,
2013-04-19 18:51:00,51.4,50.0,30.18,WSW,238,3.0,6.0,95,0.03,,---,0.56,VWS V14.01,2013-04-20 01:51:00,
2013-04-19 18:56:00,51.4,50.0,30.18,SW,235,2.0,6.0,95,0.03,,---,0.56,VWS V14.01,2013-04-20 01:56:00,
2013-04-19 19:01:00,51.2,49.8,30.18,SW,232,5.0,6.0,95,0.02,,---,0.56,VWS V14.01,2013-04-20 02:01:00,
2013-04-19 19:06:00,51.2,49.8,30.18,SSW,197,3.0,6.0,95,0.02,,---,0.56,VWS V14.01,2013-04-20 02:06:00,
2013-04-19 19:11:00,51.0,49.3,30.18,WSW,248,1.0,4.0,94,0.01,,---,0.56,VWS V14.01,2013-04-20 02:11:00,
2013-04-19 19:16:00,50.9,49.5,30.18,WSW,251,1.0,3.0,95,0.01,,---,0.56,VWS V14.01,2013-04-20 02:16:00,
2013-04-19 19:21:00,50.8,49.4,30.19,SW,228,3.0,3.0,95,0.04,,---,0.59,VWS V14.01,2013-04-20 02:21:00,
2013-04-19 19:26:00,50.6,49.2,30.19,SSW,194,5.0,6.0,95,0.04,,---,0.60,VWS V14.01,2013-04-20 02:26:00,
2013-04-19 19:31:00,50.4,49.0,30.19,WSW,242,2.0,6.0,95,0.06,,---,0.62,VWS V14.01,2013-04-20 02:31:00,
2013-04-19 19:36:00,50.2,48.8,30.19,South,179,4.0,6.0,95,0.07,,---,0.63,VWS V14.01,2013-04-20 02:36:00,
2013-04-19 19:41:00,50.1,48.7,30.19,South,186,2.0,4.0,95,0.07,,---,0.63,VWS V14.01,2013-04-20 02:41:00,
2013-04-19 19:46:00,50.1,49.0,30.19,SSE,159,1.0,4.0,96,0.07,,---,0.63,VWS V14.01,2013-04-20 02:46:00,
2013-04-19 19:51:00,50.0,48.9,30.19,SSW,203,2.0,3.0,96,0.07,,---,0.63,VWS V14.01,2013-04-20 02:51:00,
2013-04-19 19:56:00,49.9,48.8,30.19,SSW,198,5.0,7.0,96,0.08,,---,0.64,VWS V14.01,2013-04-20 02:56:00,
2013-04-19 20:01:00,49.8,48.7,30.19,SSW,192,3.0,8.0,96,0.08,,---,0.64,VWS V14.01,2013-04-20 03:01:00,
2013-04-19 20:06:00,49.8,48.4,30.19,SSE,155,8.0,9.0,95,0.08,,---,0.64,VWS V14.01,2013-04-20 03:06:00,
2013-04-19 20:11:00,49.7,48.3,30.20,SSW,193,7.0,9.0,95,0.08,,---,0.64,VWS V14.01,2013-04-20 03:11:00,
2013-04-19 20:16:00,49.7,48.6,30.20,South,180,6.0,8.0,96,0.08,,---,0.64,VWS V14.01,2013-04-20 03:16:00,
2013-04-19 20:21:00,49.7,48.6,30.20,SW,217,5.0,5.0,96,0.06,,---,0.64,VWS V14.01,2013-04-20 03:21:00,
2013-04-19 20:26:00,49.7,48.6,30.20,SW,227,5.0,6.0,96,0.04,,---,0.64,VWS V14.01,2013-04-20 03:26:00,
2013-04-19 20:31:00,49.7,48.6,30.20,South,178,4.0,4.0,96,0.02,,---,0.64,VWS V14.01,2013-04-20 03:31:00,
2013-04-19 20:36:00,49.6,48.2,30.20,SW,214,0.0,0.0,95,0.01,,---,0.64,VWS V14.01,2013-04-20 03:36:00,
2013-04-19 20:41:00,49.6,48.2,30.20,SSE,167,4.0,4.0,95,0.01,,---,0.64,VWS V14.01,2013-04-20 03:41:00,
2013-04-19 20:46:00,49.6,48.2,30.21,South,181,0.0,4.0,95,0.01,,---,0.64,VWS V14.01,2013-04-20 03:46:00,
2013-04-19 20:51:00,49.5,48.1,30.21,SSW,201,6.0,9.0,95,0.01,,---,0.64,VWS V14.01,2013-04-20 03:51:00,
2013-04-19 20:56:00,49.4,48.0,30.21,South,186,4.0,6.0,95,0.00,,---,0.64,VWS V14.01,2013-04-20 03:56:00,
2013-04-19 21:01:00,49.4,48.0,30.21,SSW,199,5.0,6.0,95,0.00,,---,0.64,VWS V14.01,2013-04-20 04:01:00,
2013-04-19 21:02:00,49.4,48.0,30.21,South,186,4.0,5.0,95,0.00,,---,0.64,VWS V14.01,2013-04-20 04:02:00,
2013-04-19 21:07:00,49.2,48.1,30.21,SW,214,8.0,12.0,96,0.00,,---,0.64,VWS V14.01,2013-04-20 04:07:00,
2013-04-19 21:12:00,49.2,48.1,30.22,SSW,193,8.0,9.0,96,0.00,,---,0.64,VWS V14.01,2013-04-20 04:12:00,
2013-04-19 21:17:00,49.1,48.0,30.22,SSW,202,7.0,11.0,96,0.00,,---,0.64,VWS V14.01,2013-04-20 04:17:00,
2013-04-19 21:22:00,49.0,47.9,30.22,South,171,11.0,11.0,96,0.00,,---,0.64,VWS V14.01,2013-04-20 04:22:00,
2013-04-19 21:27:00,48.9,47.8,30.22,South,180,6.0,13.0,96,0.00,,---,0.64,VWS V14.01,2013-04-20 04:27:00,
2013-04-19 21:32:00,48.8,47.7,30.22,SSW,205,7.0,8.0,96,0.00,,---,0.64,VWS V14.01,2013-04-20 04:32:00,
2013-04-19 21:37:00,48.7,47.6,30.22,SSW,192,9.0,12.0,96,0.00,,---,0.64,VWS V14.01,2013-04-20 04:37:00,
2013-04-19 21:42:00,48.7,47.6,30.22,SW,219,4.0,10.0,96,0.00,,---,0.64,VWS V14.01,2013-04-20 04:42:00,
2013-04-19 21:48:00,48.7,47.6,30.22,South,190,7.0,8.0,96,0.00,,---,0.64,VWS V14.01,2013-04-20 04:48:00,
2013-04-19 21:53:00,48.6,47.5,30.22,SSE,159,6.0,10.0,96,0.00,,---,0.64,VWS V14.01,2013-04-20 04:53:00,
2013-04-19 21:58:00,48.5,47.4,30.22,SSW,207,6.0,13.0,96,0.00,,---,0.64,VWS V14.01,2013-04-20 04:58:00,
2013-04-19 22:03:00,48.5,47.4,30.22,South,175,10.0,10.0,96,0.00,,---,0.64,VWS V14.01,2013-04-20 05:03:00,
2013-04-19 22:08:00,48.5,47.4,30.23,SSW,192,13.0,15.0,96,0.00,,---,0.64,VWS V14.01,2013-04-20 05:08:00,
2013-04-19 22:13:00,48.4,47.0,30.23,South,171,10.0,10.0,95,0.00,,---,0.64,VWS V14.01,2013-04-20 05:13:00,
2013-04-19 22:18:00,48.4,47.0,30.23,SW,216,3.0,3.0,95,0.00,,---,0.64,VWS V14.01,2013-04-20 05:18:00,
2013-04-19 22:23:00,48.4,47.0,30.23,South,171,4.0,6.0,95,0.00,,---,0.64,VWS V14.01,2013-04-20 05:23:00,
2013-04-19 22:28:00,48.3,46.9,30.23,SSW,212,5.0,7.0,95,0.00,,---,0.64,VWS V14.01,2013-04-20 05:28:00,
2013-04-19 22:33:00,48.3,46.9,30.24,SW,225,3.0,6.0,95,0.00,,---,0.64,VWS V14.01,2013-04-20 05:33:00,
2013-04-19 22:38:00,48.2,46.8,30.24,SW,232,6.0,10.0,95,0.00,,---,0.64,VWS V14.01,2013-04-20 05:38:00,
2013-04-19 22:43:00,48.2,46.8,30.24,SSW,205,15.0,15.0,95,0.00,,---,0.64,VWS V14.01,2013-04-20 05:43:00,
2013-04-19 22:48:00,48.3,46.9,30.24,SW,223,6.0,12.0,95,0.00,,---,0.64,VWS V14.01,2013-04-20 05:48:00,
2013-04-19 22:53:00,48.3,46.9,30.24,SSW,205,3.0,7.0,95,0.00,,---,0.64,VWS V14.01,2013-04-20 05:53:00,
2013-04-19 22:58:00,48.4,47.0,30.24,South,187,12.0,12.0,95,0.00,,---,0.64,VWS V14.01,2013-04-20 05:58:00,
2013-04-19 23:03:00,48.3,46.9,30.24,SSW,210,6.0,10.0,95,0.00,,---,0.64,VWS V14.01,2013-04-20 06:03:00,
2013-04-19 23:08:00,48.3,46.9,30.24,SE,136,7.0,7.0,95,0.00,,---,0.64,VWS V14.01,2013-04-20 06:08:00,
2013-04-19 23:13:00,48.3,46.9,30.24,SSW,207,3.0,7.0,95,0.00,,---,0.64,VWS V14.01,2013-04-20 06:13:00,
2013-04-19 23:18:00,48.3,46.9,30.24,South,188,6.0,12.0,95,0.00,,---,0.64,VWS V14.01,2013-04-20 06:18:00,
2013-04-19 23:23:00,48.3,46.9,30.24,SSE,167,7.0,8.0,95,0.00,,---,0.64,VWS V14.01,2013-04-20 06:23:00,
2013-04-19 23:28:00,48.3,46.9,30.24,SE,128,4.0,5.0,95,0.00,,---,0.64,VWS V14.01,2013-04-20 06:28:00,
2013-04-19 23:33:00,48.3,46.9,30.25,SSW,198,3.0,8.0,95,0.00,,---,0.64,VWS V14.01,2013-04-20 06:33:00,
2013-04-19 23:38:00,48.3,46.9,30.25,South,190,3.0,3.0,95,0.00,,---,0.64,VWS V14.01,2013-04-20 06:38:00,
2013-04-19 23:43:00,48.3,46.9,30.25,SSW,213,4.0,6.0,95,0.00,,---,0.64,VWS V14.01,2013-04-20 06:43:00,
2013-04-19 23:48:00,48.2,46.8,30.25,SSW,209,6.0,6.0,95,0.00,,---,0.64,VWS V14.01,2013-04-20 06:48:00,
2013-04-19 23:53:00,48.2,46.8,30.25,SSW,192,6.0,11.0,95,0.00,,---,0.64,VWS V14.01,2013-04-20 06:53:00,
2013-04-19 23:58:00,48.2,46.8,30.25,South,182,3.0,8.0,95,0.02,,---,0.66,VWS V14.01,2013-04-20 06:58:00,